Time;durP1;ratioP1;P1;durP2;ratioP2;P2;SDS_P1;SDS_P2;PMS_P1;PMS_P2;Temp;Humidity;BMP_temperature;BMP_pressure;BME280_temperature;BME280_humidity;BME280_pressure;Samples;Min_cycle;Max_cycle;Signal;HPM_P1;HPM_P2
2023/11/24 00:02:26;;;;;;;30.63;6.30;;;;;;;;;;5001441;28;25066;-71
2023/11/24 00:04:51;;;;;;;34.65;6.80;;;;;;;;;;5009913;28;25094;-73
2023/11/24 00:07:17;;;;;;;40.72;7.63;;;;;;;;;;5006210;28;25059;-73
2023/11/24 00:09:44;;;;;;;27.92;7.68;;;;;;;;;;5010099;28;25068;-73
2023/11/24 00:12:10;;;;;;;34.10;6.35;;;;;;;;;;5007452;28;25149;-70
2023/11/24 00:14:36;;;;;;;37.53;8.52;;;;;;;;;;5007817;28;25067;-74
2023/11/24 00:17:04;;;;;;;45.55;8.65;;;;;;;;;;5008489;28;25062;-73
2023/11/24 00:19:30;;;;;;;39.90;8.20;;;;;;;;;;5010176;28;25068;-75
2023/11/24 00:21:56;;;;;;;32.33;7.13;;;;;;;;;;5008180;28;25085;-71
2023/11/24 00:24:23;;;;;;;29.23;7.10;;;;;;;;;;5006496;28;25079;-71
2023/11/24 00:26:49;;;;;;;34.25;7.10;;;;;;;;;;5008592;28;25141;-74
2023/11/24 00:29:15;;;;;;;29.63;7.32;;;;;;;;;;4996290;28;25052;-71
2023/11/24 00:31:42;;;;;;;30.52;7.95;;;;;;;;;;4992864;28;25126;-73
2023/11/24 00:34:07;;;;;;;21.70;7.50;;;;;;;;;;4993546;28;25077;-73
2023/11/24 00:36:34;;;;;;;22.77;7.93;;;;;;;;;;4991399;28;25074;-74
2023/11/24 00:39:00;;;;;;;21.38;6.13;;;;;;;;;;4990366;28;25090;-69
2023/11/24 00:41:28;;;;;;;30.27;6.95;;;;;;;;;;4991644;28;25095;-69
2023/11/24 00:43:54;;;;;;;24.90;6.75;;;;;;;;;;4989383;28;25168;-70
2023/11/24 00:46:21;;;;;;;23.25;6.57;;;;;;;;;;4985752;28;25080;-71
2023/11/24 00:48:47;;;;;;;19.50;5.85;;;;;;;;;;4986002;28;25073;-72
2023/11/24 00:51:17;;;;;;;32.42;6.93;;;;;;;;;;4987967;28;25059;-70
2023/11/24 00:53:43;;;;;;;24.95;5.45;;;;;;;;;;4986046;28;25127;-70
2023/11/24 00:56:09;;;;;;;26.52;6.03;;;;;;;;;;4991505;28;25061;-70
2023/11/24 00:58:35;;;;;;;24.52;5.00;;;;;;;;;;4990917;28;25147;-70
2023/11/24 01:01:03;;;;;;;35.60;5.85;;;;;;;;;;5003965;28;25054;-71
2023/11/24 01:03:29;;;;;;;16.55;4.78;;;;;;;;;;4999233;28;25071;-71
2023/11/24 01:05:56;;;;;;;20.25;5.53;;;;;;;;;;4989949;28;25054;-70
2023/11/24 01:08:22;;;;;;;21.77;4.43;;;;;;;;;;4988500;28;25143;-70
2023/11/24 01:10:48;;;;;;;14.93;4.55;;;;;;;;;;4989379;28;25074;-70
2023/11/24 01:13:14;;;;;;;25.67;4.90;;;;;;;;;;4987902;28;25056;-71
2023/11/24 01:15:39;;;;;;;27.67;5.72;;;;;;;;;;4984431;28;25049;-71
2023/11/24 01:18:06;;;;;;;25.10;5.80;;;;;;;;;;4987188;28;25086;-70
2023/11/24 01:20:34;;;;;;;17.63;4.57;;;;;;;;;;4987235;28;25070;-70
2023/11/24 01:23:00;;;;;;;18.85;4.82;;;;;;;;;;5001472;28;25059;-69
2023/11/24 01:25:26;;;;;;;25.10;5.65;;;;;;;;;;4983399;28;25072;-70
2023/11/24 01:27:52;;;;;;;26.83;5.82;;;;;;;;;;4995703;28;25095;-74
2023/11/24 01:30:18;;;;;;;22.85;4.95;;;;;;;;;;4991186;28;25066;-71
2023/11/24 01:32:44;;;;;;;13.27;4.03;;;;;;;;;;4990403;28;25067;-73
2023/11/24 01:35:10;;;;;;;15.80;3.10;;;;;;;;;;4987681;28;25121;-74
2023/11/24 01:37:36;;;;;;;19.42;3.67;;;;;;;;;;4989553;28;25067;-70
2023/11/24 01:40:06;;;;;;;12.13;2.88;;;;;;;;;;4989347;28;25050;-70
2023/11/24 01:42:39;;;;;;;8.98;2.70;;;;;;;;;;4987744;28;25077;-73
2023/11/24 01:45:11;;;;;;;11.98;2.92;;;;;;;;;;5002941;28;25086;-71
2023/11/24 01:47:38;;;;;;;11.77;2.90;;;;;;;;;;4985078;28;25112;-71
2023/11/24 01:50:04;;;;;;;8.18;2.58;;;;;;;;;;4985323;28;25141;-71
2023/11/24 01:52:31;;;;;;;8.70;2.22;;;;;;;;;;4988945;28;25053;-70
2023/11/24 01:54:57;;;;;;;9.23;2.83;;;;;;;;;;4987781;28;25055;-71
2023/11/24 01:57:23;;;;;;;12.60;3.50;;;;;;;;;;4986952;28;25140;-70
2023/11/24 01:59:49;;;;;;;18.67;5.68;;;;;;;;;;4986130;28;25209;-71
2023/11/24 02:02:15;;;;;;;16.90;15.20;;;;;;;;;;4986427;28;25076;-73
2023/11/24 02:04:42;;;;;;;28.75;26.45;;;;;;;;;;4990600;28;25065;-75
2023/11/24 02:07:09;;;;;;;31.38;28.98;;;;;;;;;;4992482;28;25060;-72
2023/11/24 02:09:35;;;;;;;33.97;31.40;;;;;;;;;;4994546;28;25118;-71
2023/11/24 02:12:01;;;;;;;33.20;30.92;;;;;;;;;;4985610;28;25102;-72
2023/11/24 02:14:28;;;;;;;33.63;30.75;;;;;;;;;;4986882;28;25155;-73
2023/11/24 02:16:54;;;;;;;30.85;27.90;;;;;;;;;;4987273;28;25054;-70
2023/11/24 02:19:21;;;;;;;28.67;26.20;;;;;;;;;;4984507;28;25052;-71
2023/11/24 02:21:47;;;;;;;23.98;21.73;;;;;;;;;;4989732;28;25096;-70
2023/11/24 02:24:13;;;;;;;28.00;25.75;;;;;;;;;;4984536;28;25090;-71
2023/11/24 02:26:40;;;;;;;28.85;26.65;;;;;;;;;;4987789;28;25082;-72
2023/11/24 02:29:06;;;;;;;29.15;26.83;;;;;;;;;;4986593;28;25077;-71
2023/11/24 02:31:32;;;;;;;27.95;25.40;;;;;;;;;;4989744;28;25064;-77
2023/11/24 02:33:58;;;;;;;27.02;24.52;;;;;;;;;;4990494;28;25063;-74
2023/11/24 02:36:27;;;;;;;29.73;27.17;;;;;;;;;;4995517;28;25146;-74
2023/11/24 02:38:54;;;;;;;27.38;25.15;;;;;;;;;;4988980;28;25069;-74
2023/11/24 02:41:20;;;;;;;24.30;21.95;;;;;;;;;;4988275;28;25090;-74
2023/11/24 02:43:46;;;;;;;25.58;23.17;;;;;;;;;;4989001;28;25124;-75
2023/11/24 02:46:13;;;;;;;27.50;25.05;;;;;;;;;;4989756;28;25084;-75
2023/11/24 02:48:39;;;;;;;28.85;25.85;;;;;;;;;;4988033;28;25074;-75
2023/11/24 02:51:06;;;;;;;28.35;25.80;;;;;;;;;;4998934;28;25095;-75
2023/11/24 02:53:32;;;;;;;26.10;23.30;;;;;;;;;;4994588;28;25075;-76
2023/11/24 02:55:58;;;;;;;27.42;25.10;;;;;;;;;;4993182;28;25095;-76
2023/11/24 02:58:25;;;;;;;29.00;25.90;;;;;;;;;;4990999;28;25057;-75
2023/11/24 03:00:53;;;;;;;25.60;23.08;;;;;;;;;;4990241;28;25096;-75
2023/11/24 03:03:19;;;;;;;27.92;21.13;;;;;;;;;;4985820;28;25098;-75
2023/11/24 03:05:45;;;;;;;28.23;21.80;;;;;;;;;;4980799;28;25096;-75
2023/11/24 03:08:11;;;;;;;26.80;22.60;;;;;;;;;;4977827;28;25064;-73
2023/11/24 03:10:37;;;;;;;28.25;18.55;;;;;;;;;;4992278;28;25077;-76
2023/11/24 03:13:03;;;;;;;22.67;16.80;;;;;;;;;;4985273;28;25146;-75
2023/11/24 03:15:29;;;;;;;24.10;17.85;;;;;;;;;;4983008;28;25145;-75
2023/11/24 03:17:56;;;;;;;23.45;17.27;;;;;;;;;;4985381;28;25058;-74
2023/11/24 03:20:22;;;;;;;24.75;17.98;;;;;;;;;;4990822;28;25109;-75
2023/11/24 03:22:48;;;;;;;18.80;16.80;;;;;;;;;;4994123;28;25058;-76
2023/11/24 03:25:14;;;;;;;16.52;14.20;;;;;;;;;;4996006;28;25064;-74
2023/11/24 03:27:40;;;;;;;24.38;11.13;;;;;;;;;;4991936;28;25063;-75
2023/11/24 03:30:06;;;;;;;17.45;9.80;;;;;;;;;;4994573;28;25099;-74
2023/11/24 03:32:33;;;;;;;25.13;7.60;;;;;;;;;;4986064;28;25069;-76
2023/11/24 03:34:59;;;;;;;18.38;6.78;;;;;;;;;;4991534;28;25082;-78
2023/11/24 03:37:25;;;;;;;17.23;7.18;;;;;;;;;;4995590;28;25058;-76
2023/11/24 03:39:51;;;;;;;20.63;5.13;;;;;;;;;;4999144;28;25088;-77
2023/11/24 03:42:19;;;;;;;16.15;4.07;;;;;;;;;;4995675;28;25077;-75
2023/11/24 03:44:45;;;;;;;21.38;4.45;;;;;;;;;;4999923;28;25080;-76
2023/11/24 03:47:11;;;;;;;10.10;3.88;;;;;;;;;;5001166;28;25091;-77
2023/11/24 03:49:37;;;;;;;14.10;3.45;;;;;;;;;;5005030;28;25075;-76
2023/11/24 03:52:04;;;;;;;15.70;3.08;;;;;;;;;;4997873;28;25062;-76
2023/11/24 03:54:30;;;;;;;21.27;4.20;;;;;;;;;;5004976;28;25091;-75
2023/11/24 03:56:56;;;;;;;11.35;3.70;;;;;;;;;;4998399;28;25069;-75
2023/11/24 03:59:22;;;;;;;16.73;3.45;;;;;;;;;;5012953;28;25060;-75
2023/11/24 04:01:48;;;;;;;11.68;3.05;;;;;;;;;;5015367;28;25080;-75
2023/11/24 04:04:14;;;;;;;8.32;2.67;;;;;;;;;;5005868;28;25048;-77
2023/11/24 04:06:40;;;;;;;21.73;4.35;;;;;;;;;;5001598;28;25095;-74
2023/11/24 04:09:06;;;;;;;13.18;2.70;;;;;;;;;;4988766;28;25050;-74
2023/11/24 04:11:32;;;;;;;10.73;2.58;;;;;;;;;;4980706;28;25065;-75
2023/11/24 04:13:58;;;;;;;20.10;3.03;;;;;;;;;;4985447;28;25072;-74
2023/11/24 04:16:25;;;;;;;14.10;3.53;;;;;;;;;;4986567;28;25064;-73
2023/11/24 04:18:51;;;;;;;16.85;3.05;;;;;;;;;;4989811;28;25059;-78
2023/11/24 04:21:18;;;;;;;21.85;3.97;;;;;;;;;;4987274;28;25072;-75
2023/11/24 04:23:44;;;;;;;10.20;2.90;;;;;;;;;;4993583;28;25055;-76
2023/11/24 04:26:10;;;;;;;14.52;3.28;;;;;;;;;;4988624;28;25075;-76
2023/11/24 04:28:36;;;;;;;15.57;3.03;;;;;;;;;;5004870;28;25097;-75
2023/11/24 04:31:02;;;;;;;11.05;2.83;;;;;;;;;;4990647;28;25070;-75
2023/11/24 04:33:28;;;;;;;14.82;2.55;;;;;;;;;;5000493;28;25058;-75
2023/11/24 04:35:55;;;;;;;15.82;2.78;;;;;;;;;;4993314;28;25080;-76
2023/11/24 04:38:21;;;;;;;13.15;3.05;;;;;;;;;;4994638;28;25069;-75
2023/11/24 04:40:47;;;;;;;19.55;3.80;;;;;;;;;;4986888;28;25113;-79
2023/11/24 04:43:13;;;;;;;14.05;4.03;;;;;;;;;;4994093;28;25081;-74
2023/11/24 04:45:39;;;;;;;14.23;3.92;;;;;;;;;;5004998;28;25072;-76
2023/11/24 04:48:07;;;;;;;15.52;4.95;;;;;;;;;;5007546;28;25080;-77
2023/11/24 04:50:34;;;;;;;13.30;6.05;;;;;;;;;;5009430;28;25052;-76
2023/11/24 04:53:00;;;;;;;14.35;6.65;;;;;;;;;;4991404;28;25065;-73
2023/11/24 04:55:26;;;;;;;20.17;7.65;;;;;;;;;;4992005;28;25055;-74
2023/11/24 04:57:52;;;;;;;16.20;7.43;;;;;;;;;;5007078;28;25109;-79
2023/11/24 05:00:18;;;;;;;15.52;6.80;;;;;;;;;;4995780;28;25073;-75
2023/11/24 05:02:44;;;;;;;11.57;6.10;;;;;;;;;;5008741;28;25052;-74
2023/11/24 05:05:11;;;;;;;12.77;5.80;;;;;;;;;;5008483;28;25077;-75
2023/11/24 05:07:37;;;;;;;15.18;5.93;;;;;;;;;;5011167;28;25082;-75
2023/11/24 05:10:03;;;;;;;14.40;5.18;;;;;;;;;;5011793;28;25084;-74
2023/11/24 05:12:30;;;;;;;12.90;5.18;;;;;;;;;;5013157;28;25074;-75
2023/11/24 05:14:56;;;;;;;12.57;5.38;;;;;;;;;;5010963;28;25078;-75
2023/11/24 05:17:22;;;;;;;13.63;5.60;;;;;;;;;;5010573;28;25058;-77
2023/11/24 05:19:48;;;;;;;15.60;7.35;;;;;;;;;;5014498;28;25056;-81
2023/11/24 05:22:14;;;;;;;13.07;7.43;;;;;;;;;;5011144;28;25101;-77
2023/11/24 05:24:40;;;;;;;12.55;8.68;;;;;;;;;;4998837;28;25062;-76
2023/11/24 05:27:07;;;;;;;18.25;10.77;;;;;;;;;;5012846;28;25104;-74
2023/11/24 05:29:33;;;;;;;12.45;10.43;;;;;;;;;;5014460;28;25081;-77
2023/11/24 05:31:59;;;;;;;21.63;12.05;;;;;;;;;;5009042;28;25058;-77
2023/11/24 05:34:25;;;;;;;18.45;12.70;;;;;;;;;;5009119;28;25069;-76
2023/11/24 05:36:52;;;;;;;15.73;13.30;;;;;;;;;;5007337;28;25096;-74
2023/11/24 05:39:18;;;;;;;13.27;10.13;;;;;;;;;;5005254;28;25069;-75
2023/11/24 05:41:46;;;;;;;13.05;9.63;;;;;;;;;;5009126;28;25082;-76
2023/11/24 05:44:15;;;;;;;19.10;17.52;;;;;;;;;;5009034;28;25072;-78
2023/11/24 05:46:41;;;;;;;17.67;15.88;;;;;;;;;;5014964;28;25075;-76
2023/11/24 05:49:07;;;;;;;16.00;13.90;;;;;;;;;;5006094;28;25055;-76
2023/11/24 05:51:33;;;;;;;16.27;12.75;;;;;;;;;;5006449;28;25051;-77
2023/11/24 05:54:02;;;;;;;14.93;9.68;;;;;;;;;;5004926;28;25066;-75
2023/11/24 05:56:29;;;;;;;18.13;7.53;;;;;;;;;;5006723;28;25078;-75
2023/11/24 05:58:56;;;;;;;14.00;6.78;;;;;;;;;;4998305;28;25077;-75
2023/11/24 06:01:22;;;;;;;16.58;5.90;;;;;;;;;;4999110;28;25082;-73
2023/11/24 06:03:48;;;;;;;8.63;4.60;;;;;;;;;;5001263;28;25055;-73
2023/11/24 06:06:14;;;;;;;10.90;5.20;;;;;;;;;;4994852;28;25071;-75
2023/11/24 06:08:39;;;;;;;10.80;5.60;;;;;;;;;;4989246;28;25131;-75
2023/11/24 06:11:05;;;;;;;9.48;5.07;;;;;;;;;;4991361;28;25071;-73
2023/11/24 06:13:32;;;;;;;18.65;5.18;;;;;;;;;;4988227;28;25067;-74
2023/11/24 06:15:58;;;;;;;15.95;4.18;;;;;;;;;;4991109;28;25060;-75
2023/11/24 06:18:25;;;;;;;22.42;5.47;;;;;;;;;;4989110;28;25054;-77
2023/11/24 06:20:51;;;;;;;14.20;4.88;;;;;;;;;;4985394;28;25078;-75
2023/11/24 06:23:17;;;;;;;9.93;4.40;;;;;;;;;;4983030;28;25073;-76
2023/11/24 06:25:43;;;;;;;15.38;4.95;;;;;;;;;;4987728;28;25066;-80
2023/11/24 06:28:09;;;;;;;14.48;3.50;;;;;;;;;;4990041;28;25060;-78
2023/11/24 06:30:35;;;;;;;12.75;3.63;;;;;;;;;;4989058;28;25079;-80
2023/11/24 06:33:01;;;;;;;21.48;4.00;;;;;;;;;;4992331;28;25064;-79
2023/11/24 06:35:27;;;;;;;8.93;3.10;;;;;;;;;;4989070;28;25064;-78
2023/11/24 06:37:55;;;;;;;15.73;4.07;;;;;;;;;;4990000;28;25058;-80
2023/11/24 06:40:21;;;;;;;18.00;4.18;;;;;;;;;;4996825;28;25104;-74
2023/11/24 06:42:47;;;;;;;15.93;3.50;;;;;;;;;;4991511;28;25150;-80
2023/11/24 06:45:13;;;;;;;12.88;3.08;;;;;;;;;;4992998;28;25045;-76
2023/11/24 06:47:39;;;;;;;14.10;3.72;;;;;;;;;;4987011;28;25073;-78
2023/11/24 06:50:07;;;;;;;16.23;4.65;;;;;;;;;;4995285;28;25073;-74
2023/11/24 06:52:33;;;;;;;17.27;3.08;;;;;;;;;;4994991;28;25096;-77
2023/11/24 06:55:02;;;;;;;16.75;3.00;;;;;;;;;;5005359;28;25080;-77
2023/11/24 06:57:28;;;;;;;18.98;3.60;;;;;;;;;;5001215;28;25059;-75
2023/11/24 06:59:54;;;;;;;15.77;3.67;;;;;;;;;;4999007;28;25141;-75
2023/11/24 07:02:20;;;;;;;18.33;3.88;;;;;;;;;;5004524;28;25102;-76
2023/11/24 07:04:47;;;;;;;15.98;4.38;;;;;;;;;;4998091;28;25059;-75
2023/11/24 07:07:15;;;;;;;13.98;2.70;;;;;;;;;;4995616;28;25061;-76
2023/11/24 07:09:40;;;;;;;11.77;2.88;;;;;;;;;;4982021;28;25062;-75
2023/11/24 07:12:07;;;;;;;14.77;3.33;;;;;;;;;;4983679;28;25073;-77
2023/11/24 07:14:33;;;;;;;18.55;3.90;;;;;;;;;;4989522;28;25327;-76
2023/11/24 07:17:01;;;;;;;19.15;6.18;;;;;;;;;;4988760;28;25083;-77
2023/11/24 07:19:27;;;;;;;20.63;10.88;;;;;;;;;;4995039;28;25081;-78
2023/11/24 07:21:53;;;;;;;26.33;16.80;;;;;;;;;;5004048;28;25090;-80
2023/11/24 07:24:19;;;;;;;24.00;20.77;;;;;;;;;;4996926;28;25071;-78
2023/11/24 07:26:45;;;;;;;20.13;16.85;;;;;;;;;;4994419;28;25168;-76
2023/11/24 07:29:14;;;;;;;19.95;15.18;;;;;;;;;;4996797;28;25107;-79
2023/11/24 07:31:40;;;;;;;18.98;12.93;;;;;;;;;;4992321;28;25067;-76
2023/11/24 07:34:06;;;;;;;15.27;12.45;;;;;;;;;;4996304;28;25075;-80
2023/11/24 07:36:32;;;;;;;17.20;12.45;;;;;;;;;;5000073;28;25056;-76
2023/11/24 07:38:58;;;;;;;16.75;12.65;;;;;;;;;;4997923;28;25122;-82
2023/11/24 07:41:25;;;;;;;17.77;11.30;;;;;;;;;;5011725;28;25073;-74
2023/11/24 07:43:50;;;;;;;14.38;8.65;;;;;;;;;;4994166;28;25060;-78
2023/11/24 07:46:17;;;;;;;11.30;7.85;;;;;;;;;;4990306;28;25092;-77
2023/11/24 07:48:43;;;;;;;8.57;5.53;;;;;;;;;;4989352;28;25057;-76
2023/11/24 07:51:10;;;;;;;9.95;4.90;;;;;;;;;;4988491;28;25169;-74
2023/11/24 07:53:36;;;;;;;8.85;3.70;;;;;;;;;;4985776;28;25055;-78
2023/11/24 07:56:04;;;;;;;7.40;4.13;;;;;;;;;;4988819;28;25093;-79
2023/11/24 07:58:30;;;;;;;11.05;3.78;;;;;;;;;;4992669;28;25131;-76
2023/11/24 08:00:56;;;;;;;5.28;2.80;;;;;;;;;;4991585;28;25134;-74
2023/11/24 08:03:24;;;;;;;11.50;4.93;;;;;;;;;;5006383;28;25095;-79
2023/11/24 08:05:52;;;;;;;15.15;9.18;;;;;;;;;;5010962;28;25083;-81
2023/11/24 08:08:18;;;;;;;28.33;25.75;;;;;;;;;;5007893;28;25074;-80
2023/11/24 08:10:44;;;;;;;38.85;36.13;;;;;;;;;;5003345;28;25068;-79
2023/11/24 08:13:10;;;;;;;42.17;39.15;;;;;;;;;;5007035;28;25075;-82
2023/11/24 08:15:36;;;;;;;42.03;38.70;;;;;;;;;;4996880;28;25148;-79
2023/11/24 08:18:02;;;;;;;40.70;37.28;;;;;;;;;;4994770;28;25066;-83
2023/11/24 08:20:28;;;;;;;41.15;37.85;;;;;;;;;;4999831;28;25082;-76
2023/11/24 08:22:54;;;;;;;40.88;37.50;;;;;;;;;;4996028;28;25067;-77
2023/11/24 08:25:20;;;;;;;38.15;35.40;;;;;;;;;;5000259;28;25143;-76
2023/11/24 08:27:46;;;;;;;40.85;37.65;;;;;;;;;;4992939;28;25052;-77
2023/11/24 08:30:12;;;;;;;37.53;34.40;;;;;;;;;;4993377;28;25064;-78
2023/11/24 08:32:39;;;;;;;39.10;36.10;;;;;;;;;;4987454;28;25075;-77
2023/11/24 08:35:06;;;;;;;35.25;32.90;;;;;;;;;;4993694;28;25128;-82
2023/11/24 08:37:32;;;;;;;39.85;37.03;;;;;;;;;;4996733;28;25067;-80
2023/11/24 08:39:58;;;;;;;45.17;42.22;;;;;;;;;;5000350;28;25133;-80
2023/11/24 08:42:24;;;;;;;40.20;37.63;;;;;;;;;;4990429;28;25197;-81
2023/11/24 08:44:50;;;;;;;45.38;42.35;;;;;;;;;;4994386;28;25071;-82
2023/11/24 08:47:17;;;;;;;50.72;47.42;;;;;;;;;;4994562;28;25088;-76
2023/11/24 08:49:42;;;;;;;49.83;45.97;;;;;;;;;;4990798;28;25073;-77
2023/11/24 08:52:09;;;;;;;53.00;48.78;;;;;;;;;;4993869;28;25057;-81
2023/11/24 08:54:40;;;;;;;51.15;47.58;;;;;;;;;;4998598;28;25053;-78
2023/11/24 08:57:07;;;;;;;50.03;46.50;;;;;;;;;;4995919;28;25064;-79
2023/11/24 08:59:33;;;;;;;49.25;45.88;;;;;;;;;;4997702;28;25045;-78
2023/11/24 09:01:59;;;;;;;44.00;40.88;;;;;;;;;;5000700;28;25073;-78
2023/11/24 09:04:27;;;;;;;40.38;37.42;;;;;;;;;;5013965;28;25069;-77
2023/11/24 09:06:53;;;;;;;35.95;33.50;;;;;;;;;;4993591;28;25060;-77
2023/11/24 09:09:20;;;;;;;39.10;35.55;;;;;;;;;;4994088;28;25050;-80
2023/11/24 09:11:46;;;;;;;37.05;34.55;;;;;;;;;;5015247;28;25065;-78
2023/11/24 09:14:12;;;;;;;34.03;30.88;;;;;;;;;;5012714;28;25092;-80
2023/11/24 09:16:39;;;;;;;34.35;31.63;;;;;;;;;;5012139;28;25111;-79
2023/11/24 09:19:05;;;;;;;35.28;32.00;;;;;;;;;;5011508;28;25060;-79
2023/11/24 09:21:31;;;;;;;33.70;30.83;;;;;;;;;;5001600;28;25097;-79
2023/11/24 09:23:57;;;;;;;27.38;24.80;;;;;;;;;;5003940;28;25094;-78
2023/11/24 09:26:23;;;;;;;25.95;23.52;;;;;;;;;;4993749;28;25082;-81
2023/11/24 09:28:49;;;;;;;24.30;15.75;;;;;;;;;;4990914;28;25132;-77
2023/11/24 09:31:16;;;;;;;18.75;12.30;;;;;;;;;;4993004;28;25054;-80
2023/11/24 09:33:42;;;;;;;19.08;9.85;;;;;;;;;;4990009;28;25056;-80
2023/11/24 09:36:08;;;;;;;15.73;5.57;;;;;;;;;;4990595;28;25045;-80
2023/11/24 09:38:34;;;;;;;19.73;6.43;;;;;;;;;;4990316;28;25081;-79
2023/11/24 09:41:08;;;;;;;22.38;5.50;;;;;;;;;;4994685;28;25053;-79
2023/11/24 09:43:38;;;;;;;12.27;4.28;;;;;;;;;;4996199;28;25079;-77
2023/11/24 09:46:05;;;;;;;18.55;4.47;;;;;;;;;;4991491;28;25050;-76
2023/11/24 09:48:33;;;;;;;14.95;4.30;;;;;;;;;;4987512;28;25101;-78
2023/11/24 09:51:01;;;;;;;13.75;3.65;;;;;;;;;;4993225;28;25082;-80
2023/11/24 09:53:33;;;;;;;20.67;3.30;;;;;;;;;;4996610;28;25045;-78
2023/11/24 09:55:59;;;;;;;;;;;;;;;;;;4998700;28;25059;-77
2023/11/24 09:58:25;;;;;;;11.75;2.58;;;;;;;;;;5002135;28;24076;-79
2023/11/24 10:00:53;;;;;;;26.27;3.50;;;;;;;;;;4998086;28;25053;-77
2023/11/24 10:03:20;;;;;;;17.23;3.28;;;;;;;;;;4985513;28;25086;-78
2023/11/24 10:05:46;;;;;;;14.75;3.35;;;;;;;;;;4990169;28;25081;-80
2023/11/24 10:08:12;;;;;;;15.07;3.20;;;;;;;;;;4990715;28;25081;-79
2023/11/24 10:10:38;;;;;;;13.98;2.78;;;;;;;;;;4989991;28;25084;-80
2023/11/24 10:13:05;;;;;;;17.08;3.35;;;;;;;;;;4998503;28;25134;-79
2023/11/24 10:15:31;;;;;;;19.50;4.65;;;;;;;;;;4990973;28;25050;-77
2023/11/24 10:17:57;;;;;;;19.08;4.18;;;;;;;;;;4998668;28;25069;-75
2023/11/24 10:20:27;;;;;;;18.70;3.38;;;;;;;;;;5015603;28;25067;-80
2023/11/24 10:22:55;;;;;;;24.23;3.10;;;;;;;;;;4997200;28;25117;-78
2023/11/24 10:25:22;;;;;;;20.23;4.07;;;;;;;;;;4989904;28;25074;-79
2023/11/24 10:27:48;;;;;;;20.13;3.97;;;;;;;;;;4985080;28;25070;-77
2023/11/24 10:30:17;;;;;;;21.42;3.90;;;;;;;;;;4990091;28;25147;-77
2023/11/24 10:32:43;;;;;;;23.92;5.30;;;;;;;;;;4985823;28;25084;-76
2023/11/24 10:35:12;;;;;;;19.67;2.70;;;;;;;;;;4994525;28;25059;-76
2023/11/24 10:37:38;;;;;;;13.80;3.08;;;;;;;;;;4997363;28;25090;-74
2023/11/24 10:40:09;;;;;;;23.45;4.10;;;;;;;;;;4998701;28;25112;-77
2023/11/24 10:42:37;;;;;;;28.25;4.45;;;;;;;;;;4999926;28;25088;-77
2023/11/24 10:45:06;;;;;;;22.25;4.00;;;;;;;;;;4999101;28;25072;-77
2023/11/24 10:47:36;;;;;;;16.27;3.40;;;;;;;;;;5001389;28;25048;-74
2023/11/24 10:50:13;;;;;;;15.20;3.28;;;;;;;;;;4995478;28;25097;-79
2023/11/24 10:52:51;;;;;;;18.23;3.47;;;;;;;;;;4997312;28;25050;-76
2023/11/24 10:55:17;;;;;;;15.85;3.00;;;;;;;;;;4990667;28;25073;-79
2023/11/24 10:57:43;;;;;;;12.90;3.00;;;;;;;;;;4991127;28;25067;-78
2023/11/24 11:00:14;;;;;;;10.27;2.88;;;;;;;;;;4985009;28;25133;-76
2023/11/24 11:02:40;;;;;;;8.02;2.45;;;;;;;;;;4988089;28;25120;-75
2023/11/24 11:05:25;;;;;;;6.22;2.10;;;;;;;;;;4989670;28;25118;-74
2023/11/24 11:08:06;;;;;;;11.30;2.05;;;;;;;;;;4984649;28;25105;-75
2023/11/24 11:10:36;;;;;;;5.55;1.30;;;;;;;;;;4987774;28;25063;-77
2023/11/24 11:13:03;;;;;;;10.57;1.98;;;;;;;;;;4987880;28;25076;-76
2023/11/24 11:15:32;;;;;;;11.10;2.88;;;;;;;;;;4989272;28;25050;-73
2023/11/24 11:18:27;;;;;;;12.80;2.53;;;;;;;;;;4985394;28;25130;-75
2023/11/24 11:20:54;;;;;;;17.23;2.67;;;;;;;;;;4972661;28;25074;-79
2023/11/24 11:23:22;;;;;;;10.82;2.50;;;;;;;;;;4987671;28;25118;-76
2023/11/24 11:25:52;;;;;;;12.57;2.60;;;;;;;;;;4988915;28;25160;-77
2023/11/24 11:28:19;;;;;;;12.65;2.88;;;;;;;;;;4988338;28;24710;-74
2023/11/24 11:30:46;;;;;;;15.13;2.90;;;;;;;;;;4987434;28;25122;-76
2023/11/24 11:33:12;;;;;;;17.98;3.42;;;;;;;;;;4987458;28;25059;-75
2023/11/24 11:35:42;;;;;;;10.95;3.03;;;;;;;;;;4988521;28;25057;-75
2023/11/24 11:38:11;;;;;;;20.45;4.15;;;;;;;;;;4991807;28;25083;-76
2023/11/24 11:40:38;;;;;;;15.32;3.67;;;;;;;;;;4989032;28;25082;-75
2023/11/24 11:43:08;;;;;;;18.25;2.60;;;;;;;;;;4985312;28;25112;-73
2023/11/24 11:45:46;;;;;;;21.10;4.43;;;;;;;;;;4988662;28;25126;-72
2023/11/24 11:48:13;;;;;;;18.35;3.70;;;;;;;;;;4986335;28;25103;-75
2023/11/24 11:50:45;;;;;;;18.08;3.38;;;;;;;;;;4990413;28;25060;-75
2023/11/24 11:53:12;;;;;;;19.45;3.20;;;;;;;;;;4988025;28;25143;-74
2023/11/24 11:55:40;;;;;;;22.60;4.53;;;;;;;;;;4991795;28;25073;-77
2023/11/24 11:58:06;;;;;;;15.70;4.88;;;;;;;;;;4993303;28;25056;-79
2023/11/24 12:00:32;;;;;;;20.88;8.93;;;;;;;;;;4990565;28;25053;-76
2023/11/24 12:02:59;;;;;;;18.85;15.15;;;;;;;;;;4989927;28;25059;-75
2023/11/24 12:05:26;;;;;;;33.08;29.88;;;;;;;;;;4990019;28;25074;-76
2023/11/24 12:07:55;;;;;;;37.03;33.25;;;;;;;;;;4995295;28;25130;-77
2023/11/24 12:10:21;;;;;;;37.70;30.63;;;;;;;;;;4987056;28;25054;-79
2023/11/24 12:12:48;;;;;;;35.15;30.60;;;;;;;;;;4990621;28;25136;-76
2023/11/24 12:15:17;;;;;;;34.65;29.85;;;;;;;;;;5003502;28;25064;-76
2023/11/24 12:17:47;;;;;;;32.47;27.48;;;;;;;;;;4996927;28;25070;-77
2023/11/24 12:20:14;;;;;;;41.70;38.42;;;;;;;;;;5000061;28;25071;-77
2023/11/24 12:22:41;;;;;;;42.88;38.38;;;;;;;;;;5006775;28;25074;-77
2023/11/24 12:25:10;;;;;;;42.10;38.97;;;;;;;;;;4991391;28;25086;-77
2023/11/24 12:27:36;;;;;;;39.08;35.33;;;;;;;;;;4995516;28;25082;-77
2023/11/24 12:30:04;;;;;;;38.08;34.60;;;;;;;;;;4996215;28;25077;-74
2023/11/24 12:32:32;;;;;;;36.30;33.25;;;;;;;;;;4996439;28;25075;-78
2023/11/24 12:35:01;;;;;;;36.88;33.22;;;;;;;;;;4990996;28;25054;-78
2023/11/24 12:37:27;;;;;;;38.10;34.50;;;;;;;;;;4993935;28;25052;-75
2023/11/24 12:39:54;;;;;;;37.92;34.63;;;;;;;;;;4989371;28;25066;-77
2023/11/24 12:42:22;;;;;;;35.45;31.95;;;;;;;;;;4992747;28;25085;-75
2023/11/24 12:44:50;;;;;;;33.10;28.83;;;;;;;;;;4989318;28;25093;-77
2023/11/24 12:47:19;;;;;;;31.10;28.02;;;;;;;;;;4990056;28;25079;-76
2023/11/24 12:50:01;;;;;;;31.90;22.90;;;;;;;;;;4992069;28;25072;-77
2023/11/24 12:52:33;;;;;;;33.60;20.17;;;;;;;;;;4988941;28;25067;-75
2023/11/24 12:54:59;;;;;;;29.05;22.98;;;;;;;;;;4986691;28;25085;-77
2023/11/24 12:57:26;;;;;;;35.38;22.40;;;;;;;;;;4991672;28;25060;-77
2023/11/24 12:59:52;;;;;;;34.20;23.02;;;;;;;;;;4993247;28;25059;-75
2023/11/24 13:02:21;;;;;;;33.05;16.45;;;;;;;;;;4991993;28;25073;-75
2023/11/24 13:04:48;;;;;;;30.60;14.90;;;;;;;;;;4991029;28;25154;-76
2023/11/24 13:07:14;;;;;;;30.02;8.68;;;;;;;;;;4990572;28;25078;-76
2023/11/24 13:09:40;;;;;;;29.23;5.60;;;;;;;;;;4990643;28;25062;-76
2023/11/24 13:12:08;;;;;;;21.17;4.85;;;;;;;;;;4990320;28;25162;-77
2023/11/24 13:14:34;;;;;;;28.55;5.22;;;;;;;;;;4988542;28;25144;-76
2023/11/24 13:17:00;;;;;;;30.00;5.22;;;;;;;;;;4990757;28;25067;-76
2023/11/24 13:19:26;;;;;;;25.92;5.72;;;;;;;;;;4992941;28;25083;-75
2023/11/24 13:21:55;;;;;;;22.33;5.03;;;;;;;;;;4994585;28;25111;-75
2023/11/24 13:24:21;;;;;;;31.13;7.43;;;;;;;;;;4997412;28;25080;-74
2023/11/24 13:26:48;;;;;;;30.38;5.95;;;;;;;;;;4994992;28;25110;-75
2023/11/24 13:29:15;;;;;;;29.33;6.55;;;;;;;;;;4994297;28;25054;-75
2023/11/24 13:31:44;;;;;;;29.30;6.28;;;;;;;;;;4999013;28;25058;-75
2023/11/24 13:34:12;;;;;;;33.42;6.20;;;;;;;;;;4998479;28;25078;-74
2023/11/24 13:36:38;;;;;;;37.13;5.95;;;;;;;;;;5000702;28;25060;-78
2023/11/24 13:39:06;;;;;;;29.40;4.55;;;;;;;;;;5001584;28;25064;-75
2023/11/24 13:41:33;;;;;;;21.27;3.85;;;;;;;;;;4991573;28;25157;-75
2023/11/24 13:44:04;;;;;;;16.25;4.70;;;;;;;;;;4991471;28;25090;-74
2023/11/24 13:46:30;;;;;;;17.15;3.40;;;;;;;;;;4986717;28;25065;-76
2023/11/24 13:48:56;;;;;;;23.20;4.50;;;;;;;;;;4986876;28;25081;-76
2023/11/24 13:51:24;;;;;;;17.83;3.35;;;;;;;;;;4989261;28;25051;-75
2023/11/24 13:53:51;;;;;;;10.18;3.05;;;;;;;;;;4988246;28;25072;-75
2023/11/24 13:56:18;;;;;;;16.38;4.82;;;;;;;;;;5004879;28;25052;-73
2023/11/24 13:58:44;;;;;;;14.68;5.20;;;;;;;;;;4999214;28;25099;-73
2023/11/24 14:01:10;;;;;;;19.15;6.47;;;;;;;;;;4997899;28;25062;-73
2023/11/24 14:03:36;;;;;;;21.75;8.30;;;;;;;;;;4991914;28;25104;-77
2023/11/24 14:06:03;;;;;;;23.05;8.82;;;;;;;;;;4988307;28;25093;-73
2023/11/24 14:08:29;;;;;;;25.98;9.52;;;;;;;;;;4990493;28;25063;-74
2023/11/24 14:10:55;;;;;;;28.50;9.40;;;;;;;;;;4993611;28;25078;-75
2023/11/24 14:13:21;;;;;;;34.92;8.93;;;;;;;;;;4997782;28;25068;-74
2023/11/24 14:15:49;;;;;;;31.13;11.70;;;;;;;;;;4981396;28;25140;-73
2023/11/24 14:18:15;;;;;;;27.63;12.18;;;;;;;;;;5001166;28;25056;-74
2023/11/24 14:20:42;;;;;;;25.38;11.77;;;;;;;;;;5012079;28;25084;-75
2023/11/24 14:23:08;;;;;;;21.27;11.20;;;;;;;;;;5008624;28;25138;-72
2023/11/24 14:25:34;;;;;;;25.73;12.20;;;;;;;;;;4997136;28;25132;-75